KTVC/TVC METAR and TAF weather

Enter ICAO airport designator
Station Type Date Time Source
KTVC METAR 2019/08/20 09:53 UTC NOAA

KTVC 200953Z AUTO 00000KT 10SM CLR 13/11 A3004 RMK AO2 SLP173 T01330111


Station Type Date Time Source
KTVC Decoded METAR 2019/08/20 09:53 UTC NOAA

CHERRY CAPITAL AIRPORT, MI, United States (KTVC) 44-44N 085-34W 190M
Aug 20, 2019 - 05:53 AM EDT / 2019.08.20 0953 UTC
Wind: Calm:0
Visibility: 10 mile(s):0
Sky conditions: clear
Temperature: 55.9 F (13.3 C)
Dew Point: 52.0 F (11.1 C)
Relative Humidity: 86%
Pressure (altimeter): 30.04 in. Hg (1017 hPa)
ob: KTVC 200953Z AUTO 00000KT 10SM CLR 13/11 A3004 RMK AO2 SLP173 T01330111
cycle: 10

Station Type Date Time Source
KTVC TAF 2019/08/20 06:22 UTC NOAA

TAF KTVC 200520Z 2006/2106 00000KT P6SM SKC
FM201900 24005KT P6SM BKN200
FM202200 00000KT P6SM BKN120

Example: see airport list